Time;durP1;ratioP1;P1;durP2;ratioP2;P2;SDS_P1;SDS_P2;PMS_P1;PMS_P2;Temp;Humidity;BMP_temperature;BMP_pressure;BME280_temperature;BME280_humidity;BME280_pressure;Samples;Min_cycle;Max_cycle;Signal;HPM_P1;HPM_P2
2023/10/15 00:01:51;;;;;;;4.88;1.40;;;;;;;;;;5037924;28;20037;-87
2023/10/15 00:04:17;;;;;;;3.85;1.10;;;;;;;;;;5022398;28;20038;-87
2023/10/15 00:06:42;;;;;;;4.50;1.30;;;;;;;;;;5021098;28;20054;-86
2023/10/15 00:09:09;;;;;;;4.40;1.50;;;;;;;;;;5029344;28;20498;-86
2023/10/15 00:11:34;;;;;;;3.95;1.23;;;;;;;;;;5031469;28;20037;-86
2023/10/15 00:14:03;;;;;;;5.82;1.20;;;;;;;;;;5024852;28;20038;-86
2023/10/15 00:16:29;;;;;;;8.65;1.60;;;;;;;;;;5021994;28;20064;-87
2023/10/15 00:18:54;;;;;;;2.05;1.00;;;;;;;;;;5027728;28;20063;-86
2023/10/15 00:21:20;;;;;;;4.10;1.13;;;;;;;;;;5032053;28;20101;-86
2023/10/15 00:23:47;;;;;;;6.43;1.48;;;;;;;;;;5025733;28;20084;-85
2023/10/15 00:26:16;;;;;;;3.20;1.23;;;;;;;;;;5003976;28;20035;-86
2023/10/15 00:28:48;;;;;;;3.65;1.20;;;;;;;;;;5020611;28;20038;-86
2023/10/15 00:31:13;;;;;;;3.85;1.20;;;;;;;;;;5032318;28;20056;-87
2023/10/15 00:33:46;;;;;;;4.13;1.27;;;;;;;;;;5025691;28;20027;-85
2023/10/15 00:36:15;;;;;;;7.25;1.35;;;;;;;;;;5023759;28;20040;-87
2023/10/15 00:38:45;;;;;;;4.03;1.27;;;;;;;;;;5021312;28;20061;-85
2023/10/15 00:41:13;;;;;;;3.95;1.30;;;;;;;;;;5008760;28;20038;-86
2023/10/15 00:43:54;;;;;;;3.65;1.00;;;;;;;;;;5006820;28;20416;-85
2023/10/15 00:46:22;;;;;;;2.42;1.00;;;;;;;;;;4986946;28;20129;-84
2023/10/15 00:48:48;;;;;;;5.18;1.40;;;;;;;;;;4991771;28;20030;-87
2023/10/15 00:51:14;;;;;;;3.53;1.30;;;;;;;;;;5023791;28;20030;-86
2023/10/15 00:53:54;;;;;;;4.50;1.25;;;;;;;;;;5023479;28;20064;-84
2023/10/15 00:56:26;;;;;;;4.40;1.30;;;;;;;;;;4999941;28;20029;-86
2023/10/15 01:03:53;;;;;;;4.18;1.20;;;;;;;;;;5026434;28;20046;-85
2023/10/15 01:06:30;;;;;;;4.18;1.00;;;;;;;;;;5020459;28;20030;-84
2023/10/15 01:09:08;;;;;;;6.50;1.38;;;;;;;;;;4999742;28;20117;-84
2023/10/15 01:12:30;;;;;;;4.32;1.27;;;;;;;;;;5025683;28;20052;-86
2023/10/15 01:14:37;;;;;;;3.28;1.08;;;;;;;;;;5005229;28;20511;-87
2023/10/15 01:17:04;;;;;;;4.93;1.40;;;;;;;;;;5021578;28;20034;-86
2023/10/15 01:19:34;;;;;;;4.45;1.52;;;;;;;;;;5003376;28;20033;-84
2023/10/15 01:22:02;;;;;;;4.55;1.20;;;;;;;;;;5025333;28;20030;-86
2023/10/15 01:24:28;;;;;;;2.78;1.00;;;;;;;;;;5022599;28;20052;-84
2023/10/15 01:27:08;;;;;;;5.60;1.40;;;;;;;;;;5004754;28;20165;-85
2023/10/15 01:29:42;;;;;;;4.43;1.40;;;;;;;;;;5016779;28;20041;-85
2023/10/15 01:32:13;;;;;;;5.13;1.30;;;;;;;;;;5014981;28;20394;-85
2023/10/15 01:34:45;;;;;;;6.90;1.40;;;;;;;;;;5027866;28;20038;-84
2023/10/15 01:37:24;;;;;;;6.72;1.20;;;;;;;;;;5022175;28;20475;-85
2023/10/15 01:39:52;;;;;;;5.85;1.23;;;;;;;;;;5018766;28;20097;-84
2023/10/15 01:44:59;;;;;;;5.97;1.20;;;;;;;;;;5026578;28;20499;-86
2023/10/15 01:47:29;;;;;;;6.28;1.45;;;;;;;;;;5021079;28;20036;-86
2023/10/15 01:49:56;;;;;;;5.75;1.73;;;;;;;;;;5017773;28;20452;-86
2023/10/15 01:52:32;;;;;;;4.50;1.30;;;;;;;;;;5019023;28;20488;-86
2023/10/15 01:55:03;;;;;;;5.82;1.30;;;;;;;;;;5021067;28;20034;-85
2023/10/15 01:57:29;;;;;;;3.78;1.13;;;;;;;;;;5022035;28;20045;-84
2023/10/15 02:00:05;;;;;;;3.22;1.13;;;;;;;;;;5016792;28;20034;-87
2023/10/15 02:02:38;;;;;;;4.40;1.10;;;;;;;;;;5013797;28;20038;-86
2023/10/15 02:05:04;;;;;;;4.20;1.20;;;;;;;;;;5028318;28;20344;-86
2023/10/15 02:07:31;;;;;;;4.68;1.10;;;;;;;;;;5020265;28;20037;-86
2023/10/15 02:09:56;;;;;;;3.85;1.30;;;;;;;;;;5020008;28;20065;-87
2023/10/15 02:12:22;;;;;;;3.60;1.15;;;;;;;;;;4997549;28;20068;-84
2023/10/15 02:14:48;;;;;;;7.55;2.00;;;;;;;;;;5023801;28;20377;-86
2023/10/15 02:17:18;;;;;;;4.63;1.27;;;;;;;;;;5024290;28;20045;-85
2023/10/15 02:19:47;;;;;;;4.22;1.25;;;;;;;;;;5031049;28;20135;-85
2023/10/15 02:22:13;;;;;;;4.47;1.35;;;;;;;;;;5011853;28;20045;-83
2023/10/15 02:24:48;;;;;;;4.68;1.30;;;;;;;;;;5021811;28;20111;-84
2023/10/15 02:27:23;;;;;;;4.70;1.10;;;;;;;;;;5027995;28;20127;-84
2023/10/15 02:29:50;;;;;;;4.97;1.30;;;;;;;;;;5018988;28;20037;-85
2023/10/15 02:34:45;;;;;;;4.15;1.40;;;;;;;;;;5014897;28;20049;-86
2023/10/15 02:37:16;;;;;;;5.07;1.17;;;;;;;;;;5025003;28;20037;-85
2023/10/15 02:39:52;;;;;;;3.03;1.00;;;;;;;;;;4998132;28;20039;-84
2023/10/15 02:42:20;;;;;;;5.15;1.40;;;;;;;;;;5014958;28;20427;-84
2023/10/15 02:44:50;;;;;;;5.43;1.27;;;;;;;;;;5012644;28;20044;-85
2023/10/15 02:47:28;;;;;;;4.00;1.17;;;;;;;;;;5020834;28;20436;-86
2023/10/15 02:50:03;;;;;;;4.55;1.30;;;;;;;;;;5018866;28;20553;-84
2023/10/15 02:52:44;;;;;;;3.55;1.15;;;;;;;;;;5014678;28;20504;-85
2023/10/15 02:55:14;;;;;;;4.22;1.10;;;;;;;;;;5007742;28;20057;-84
2023/10/15 02:57:43;;;;;;;4.72;1.48;;;;;;;;;;5011525;28;20045;-84
2023/10/15 03:00:18;;;;;;;4.75;1.23;;;;;;;;;;5020933;28;20061;-84
2023/10/15 03:02:45;;;;;;;3.35;1.15;;;;;;;;;;5015947;28;20034;-84
2023/10/15 03:05:13;;;;;;;4.97;1.10;;;;;;;;;;5011267;28;20077;-85
2023/10/15 03:07:43;;;;;;;4.13;1.40;;;;;;;;;;5023190;28;20029;-86
2023/10/15 03:10:12;;;;;;;3.15;1.13;;;;;;;;;;5005129;28;20034;-86
2023/10/15 03:12:44;;;;;;;3.33;1.13;;;;;;;;;;5022821;28;20476;-86
2023/10/15 03:15:11;;;;;;;3.03;1.20;;;;;;;;;;5016694;28;20044;-85
2023/10/15 03:17:40;;;;;;;3.53;1.10;;;;;;;;;;5027919;28;20021;-87
2023/10/15 03:22:44;;;;;;;5.22;1.30;;;;;;;;;;5005087;28;20045;-86
2023/10/15 03:25:13;;;;;;;3.85;1.10;;;;;;;;;;5018229;28;20042;-87
2023/10/15 03:27:46;;;;;;;5.00;1.10;;;;;;;;;;5024992;28;20037;-88
2023/10/15 03:30:13;;;;;;;5.22;1.30;;;;;;;;;;5012733;28;20038;-86
2023/10/15 03:32:44;;;;;;;4.95;1.20;;;;;;;;;;5026471;28;20403;-86
2023/10/15 03:35:17;;;;;;;5.97;1.70;;;;;;;;;;5001948;28;20037;-85
2023/10/15 03:37:46;;;;;;;5.55;1.65;;;;;;;;;;5033122;28;20431;-86
2023/10/15 03:40:32;;;;;;;4.40;1.20;;;;;;;;;;5030725;28;20417;-85
2023/10/15 03:43:04;;;;;;;2.90;1.20;;;;;;;;;;5025899;28;20039;-85
2023/10/15 03:45:32;;;;;;;7.53;1.67;;;;;;;;;;5008944;28;20033;-85
2023/10/15 03:48:00;;;;;;;3.22;1.25;;;;;;;;;;5023227;28;20036;-86
2023/10/15 03:50:29;;;;;;;5.90;1.15;;;;;;;;;;5034093;28;20399;-86
2023/10/15 03:52:58;;;;;;;4.28;1.30;;;;;;;;;;5029483;28;20112;-86
2023/10/15 03:55:24;;;;;;;4.18;1.35;;;;;;;;;;5025096;28;20080;-84
2023/10/15 03:57:51;;;;;;;2.97;1.00;;;;;;;;;;5020241;28;20026;-87
2023/10/15 04:00:35;;;;;;;3.45;1.20;;;;;;;;;;5030010;28;20440;-86
2023/10/15 04:03:08;;;;;;;4.70;1.00;;;;;;;;;;5030466;28;20037;-84
2023/10/15 04:05:33;;;;;;;4.87;1.23;;;;;;;;;;5023749;28;20518;-84
2023/10/15 04:07:59;;;;;;;5.28;1.27;;;;;;;;;;5017466;28;20037;-85
2023/10/15 04:10:33;;;;;;;2.75;1.27;;;;;;;;;;5031342;28;20033;-85
2023/10/15 04:12:59;;;;;;;7.35;1.30;;;;;;;;;;5025284;28;20077;-85
2023/10/15 04:15:25;;;;;;;5.38;1.15;;;;;;;;;;5023930;28;20033;-85
2023/10/15 04:17:52;;;;;;;2.97;1.10;;;;;;;;;;5020822;28;20030;-86
2023/10/15 04:20:26;;;;;;;4.13;1.10;;;;;;;;;;5026715;28;20052;-87
2023/10/15 04:22:53;;;;;;;4.90;1.20;;;;;;;;;;5028459;28;20078;-85
2023/10/15 04:25:26;;;;;;;2.90;1.30;;;;;;;;;;5026181;28;20088;-87
2023/10/15 04:27:53;;;;;;;4.38;1.17;;;;;;;;;;5017947;28;20137;-86
2023/10/15 04:30:23;;;;;;;5.05;1.25;;;;;;;;;;5022144;28;20029;-86
2023/10/15 04:32:49;;;;;;;4.93;1.05;;;;;;;;;;5023549;28;20040;-86
2023/10/15 04:35:18;;;;;;;4.80;1.45;;;;;;;;;;5025654;28;20033;-84
2023/10/15 04:37:45;;;;;;;4.68;1.10;;;;;;;;;;5019108;28;20046;-86
2023/10/15 04:40:12;;;;;;;4.72;1.10;;;;;;;;;;5012825;28;20034;-87
2023/10/15 04:42:43;;;;;;;4.15;1.20;;;;;;;;;;5028617;28;20060;-86
2023/10/15 04:45:20;;;;;;;5.55;1.30;;;;;;;;;;5026057;28;20454;-84
2023/10/15 04:47:52;;;;;;;3.38;1.20;;;;;;;;;;5019837;28;20044;-85
2023/10/15 04:50:18;;;;;;;5.63;1.15;;;;;;;;;;5014797;28;20067;-87
2023/10/15 04:52:44;;;;;;;3.67;1.25;;;;;;;;;;5024749;28;20438;-86
2023/10/15 04:55:13;;;;;;;4.28;1.23;;;;;;;;;;5042304;28;20045;-84
2023/10/15 04:57:39;;;;;;;4.22;1.30;;;;;;;;;;5018331;28;20057;-86
2023/10/15 05:00:06;;;;;;;6.25;1.33;;;;;;;;;;4998597;28;20385;-84
2023/10/15 05:02:35;;;;;;;6.07;1.30;;;;;;;;;;5018275;28;20505;-85
2023/10/15 05:05:05;;;;;;;2.35;1.20;;;;;;;;;;5029904;28;20042;-84
2023/10/15 05:07:31;;;;;;;3.65;1.20;;;;;;;;;;5022877;28;20041;-85
2023/10/15 05:09:58;;;;;;;4.90;1.30;;;;;;;;;;5020263;28;20037;-86
2023/10/15 05:12:23;;;;;;;4.28;1.40;;;;;;;;;;5018810;28;20030;-85
2023/10/15 05:14:49;;;;;;;2.88;1.15;;;;;;;;;;5030837;28;20163;-85
2023/10/15 05:17:17;;;;;;;4.90;1.30;;;;;;;;;;5022397;28;20380;-85
2023/10/15 05:19:43;;;;;;;5.60;1.30;;;;;;;;;;5022344;28;20112;-87
2023/10/15 05:22:09;;;;;;;6.82;1.38;;;;;;;;;;5012299;28;20169;-84
2023/10/15 05:24:35;;;;;;;5.82;1.40;;;;;;;;;;5029109;28;20191;-86
2023/10/15 05:27:01;;;;;;;2.78;1.20;;;;;;;;;;5023402;28;20042;-84
2023/10/15 05:29:26;;;;;;;4.35;1.30;;;;;;;;;;5020004;28;20041;-86
2023/10/15 05:31:53;;;;;;;3.35;1.30;;;;;;;;;;4998549;28;20038;-85
2023/10/15 05:34:20;;;;;;;5.40;1.30;;;;;;;;;;5027621;28;20406;-85
2023/10/15 05:36:45;;;;;;;3.53;1.20;;;;;;;;;;5027091;28;20037;-86
2023/10/15 05:39:15;;;;;;;4.57;1.30;;;;;;;;;;5023353;28;20043;-85
2023/10/15 05:41:42;;;;;;;5.18;1.33;;;;;;;;;;5012820;28;20471;-85
2023/10/15 05:44:07;;;;;;;4.45;1.30;;;;;;;;;;5023301;28;20033;-85
2023/10/15 05:46:34;;;;;;;3.97;1.20;;;;;;;;;;5029465;28;20041;-85
2023/10/15 05:48:59;;;;;;;4.90;1.25;;;;;;;;;;5017522;28;20038;-84
2023/10/15 05:51:28;;;;;;;5.70;1.10;;;;;;;;;;5009253;28;20043;-85
2023/10/15 05:53:54;;;;;;;3.72;1.10;;;;;;;;;;5019340;28;20683;-84
2023/10/15 05:56:21;;;;;;;4.22;1.10;;;;;;;;;;5023543;28;20037;-85
2023/10/15 05:58:47;;;;;;;2.65;0.93;;;;;;;;;;5014936;28;20073;-86
2023/10/15 06:01:15;;;;;;;3.75;1.15;;;;;;;;;;5016134;28;20037;-84
2023/10/15 06:03:41;;;;;;;3.85;1.20;;;;;;;;;;4992800;28;20034;-85
2023/10/15 06:06:06;;;;;;;5.10;1.10;;;;;;;;;;5024958;28;20068;-84
2023/10/15 06:08:33;;;;;;;4.97;1.20;;;;;;;;;;5025069;28;20038;-85
2023/10/15 06:10:58;;;;;;;4.30;1.10;;;;;;;;;;5017803;28;20377;-86
2023/10/15 06:13:24;;;;;;;5.93;1.25;;;;;;;;;;5031570;28;20558;-82
2023/10/15 06:15:52;;;;;;;4.10;1.10;;;;;;;;;;5001627;28;20184;-83
2023/10/15 06:18:18;;;;;;;2.08;1.00;;;;;;;;;;5026873;28;20130;-86
2023/10/15 06:20:47;;;;;;;5.43;1.20;;;;;;;;;;5022719;28;20069;-85
2023/10/15 06:23:13;;;;;;;3.95;1.10;;;;;;;;;;5014812;28;20621;-86
2023/10/15 06:25:39;;;;;;;4.05;1.10;;;;;;;;;;5017219;28;20114;-84
2023/10/15 06:28:06;;;;;;;4.63;1.10;;;;;;;;;;5028796;28;20028;-86
2023/10/15 06:30:31;;;;;;;4.40;1.08;;;;;;;;;;5021459;28;20465;-84
2023/10/15 06:32:57;;;;;;;4.68;1.20;;;;;;;;;;5015558;28;20045;-85
2023/10/15 06:35:25;;;;;;;5.53;1.60;;;;;;;;;;5012290;28;20036;-86
2023/10/15 06:37:55;;;;;;;5.32;1.25;;;;;;;;;;5029006;28;20042;-83
2023/10/15 06:40:21;;;;;;;5.82;1.10;;;;;;;;;;5026662;28;20569;-85
2023/10/15 06:42:47;;;;;;;4.30;1.00;;;;;;;;;;5019934;28;20479;-85
2023/10/15 06:45:18;;;;;;;7.13;1.00;;;;;;;;;;5015223;28;20077;-83
2023/10/15 06:47:45;;;;;;;2.83;0.93;;;;;;;;;;5026475;28;20041;-86
2023/10/15 06:50:11;;;;;;;5.25;1.17;;;;;;;;;;5023098;28;20059;-86
2023/10/15 06:52:41;;;;;;;7.85;2.50;;;;;;;;;;5021844;28;20120;-87
2023/10/15 06:55:07;;;;;;;9.98;3.33;;;;;;;;;;5017598;28;20117;-85
2023/10/15 06:57:34;;;;;;;5.85;1.30;;;;;;;;;;5022621;28;20049;-84
2023/10/15 06:59:59;;;;;;;5.07;1.38;;;;;;;;;;5029693;28;20483;-86
2023/10/15 07:02:28;;;;;;;4.70;1.27;;;;;;;;;;5024697;28;20056;-84
2023/10/15 07:04:56;;;;;;;7.28;1.65;;;;;;;;;;4999573;28;20069;-86
2023/10/15 07:07:22;;;;;;;5.93;1.70;;;;;;;;;;5018707;28;20037;-84
2023/10/15 07:09:47;;;;;;;7.40;2.03;;;;;;;;;;5030399;28;20025;-84
2023/10/15 07:12:14;;;;;;;11.60;2.97;;;;;;;;;;5025426;28;20168;-86
2023/10/15 07:14:39;;;;;;;11.07;2.40;;;;;;;;;;5031112;28;20018;-87
2023/10/15 07:17:05;;;;;;;9.27;2.22;;;;;;;;;;5014839;28;20065;-87
2023/10/15 07:19:30;;;;;;;4.38;1.20;;;;;;;;;;5026067;28;20045;-86
2023/10/15 07:21:56;;;;;;;3.83;0.90;;;;;;;;;;5023053;28;20099;-86
2023/10/15 07:24:22;;;;;;;4.80;1.10;;;;;;;;;;5012500;28;20034;-84
2023/10/15 07:26:48;;;;;;;2.58;0.95;;;;;;;;;;5012497;28;20084;-83
2023/10/15 07:29:13;;;;;;;4.07;1.20;;;;;;;;;;5025042;28;20042;-84
2023/10/15 07:31:39;;;;;;;4.40;1.27;;;;;;;;;;5030848;28;20041;-85
2023/10/15 07:34:05;;;;;;;4.40;1.02;;;;;;;;;;5023138;28;20067;-86
2023/10/15 07:36:32;;;;;;;4.05;1.00;;;;;;;;;;5018450;28;20037;-86
2023/10/15 07:38:57;;;;;;;3.50;0.88;;;;;;;;;;5018002;28;20041;-86
2023/10/15 07:41:23;;;;;;;3.53;0.95;;;;;;;;;;5027196;28;20044;-86
2023/10/15 07:43:48;;;;;;;5.38;1.02;;;;;;;;;;5024693;28;20030;-85
2023/10/15 07:46:14;;;;;;;3.13;1.00;;;;;;;;;;4999908;28;20420;-85
2023/10/15 07:48:40;;;;;;;4.47;1.10;;;;;;;;;;5013208;28;20065;-83
2023/10/15 07:51:06;;;;;;;5.60;0.90;;;;;;;;;;5028028;28;20104;-86
2023/10/15 07:53:31;;;;;;;5.13;1.30;;;;;;;;;;5023610;28;20121;-83
2023/10/15 07:55:57;;;;;;;5.35;1.50;;;;;;;;;;5017013;28;20097;-83
2023/10/15 07:58:23;;;;;;;7.07;1.30;;;;;;;;;;5019674;28;20026;-84
2023/10/15 08:00:50;;;;;;;5.10;1.13;;;;;;;;;;5021701;28;20033;-85
2023/10/15 08:03:16;;;;;;;4.03;1.30;;;;;;;;;;5025613;28;20449;-86
2023/10/15 08:05:44;;;;;;;3.47;1.00;;;;;;;;;;5022340;28;20042;-87
2023/10/15 08:08:11;;;;;;;4.05;1.27;;;;;;;;;;5018674;28;20570;-81
2023/10/15 08:10:37;;;;;;;4.25;1.40;;;;;;;;;;5018572;28;20140;-83
2023/10/15 08:13:03;;;;;;;5.15;1.40;;;;;;;;;;5027751;28;20113;-83
2023/10/15 08:15:29;;;;;;;3.72;1.10;;;;;;;;;;5025103;28;20061;-83
2023/10/15 08:17:57;;;;;;;3.60;1.35;;;;;;;;;;5022066;28;20045;-82
2023/10/15 08:20:23;;;;;;;4.57;1.30;;;;;;;;;;5018795;28;20040;-83
2023/10/15 08:22:49;;;;;;;3.50;1.10;;;;;;;;;;5031159;28;20036;-83
2023/10/15 08:25:14;;;;;;;5.18;1.65;;;;;;;;;;5027476;28;20037;-82
2023/10/15 08:27:44;;;;;;;4.30;1.15;;;;;;;;;;5022600;28;20148;-83
2023/10/15 08:30:14;;;;;;;3.53;1.23;;;;;;;;;;5017392;28;20041;-82
2023/10/15 08:32:44;;;;;;;4.53;1.30;;;;;;;;;;5026618;28;20062;-81
2023/10/15 08:35:10;;;;;;;3.00;1.05;;;;;;;;;;5026789;28;20146;-82
2023/10/15 08:37:37;;;;;;;4.07;1.40;;;;;;;;;;5022089;28;20128;-81
2023/10/15 08:40:06;;;;;;;3.83;1.30;;;;;;;;;;5018237;28;20088;-84
2023/10/15 08:42:42;;;;;;;2.30;1.02;;;;;;;;;;5018707;28;20068;-82
2023/10/15 08:45:08;;;;;;;4.95;1.58;;;;;;;;;;5039704;28;20047;-83
2023/10/15 08:47:35;;;;;;;4.38;1.50;;;;;;;;;;5024233;28;20097;-83
2023/10/15 08:50:01;;;;;;;3.85;1.50;;;;;;;;;;5019958;28;20026;-85
2023/10/15 08:52:27;;;;;;;4.55;1.50;;;;;;;;;;5018165;28;20065;-85
2023/10/15 08:54:54;;;;;;;4.25;1.40;;;;;;;;;;5010438;28;20041;-84
2023/10/15 08:57:21;;;;;;;6.65;1.30;;;;;;;;;;5025684;28;20092;-84
2023/10/15 08:59:47;;;;;;;4.82;1.60;;;;;;;;;;5020589;28;20090;-85
2023/10/15 09:02:15;;;;;;;4.88;1.83;;;;;;;;;;5012660;28;20210;-85
2023/10/15 09:04:44;;;;;;;3.88;1.40;;;;;;;;;;5028933;28;20080;-87
2023/10/15 09:07:12;;;;;;;5.85;1.30;;;;;;;;;;5024144;28;20049;-89
2023/10/15 09:09:38;;;;;;;5.68;1.42;;;;;;;;;;5019636;28;20092;-87
2023/10/15 09:12:06;;;;;;;4.63;1.40;;;;;;;;;;5018901;28;20706;-83
2023/10/15 09:14:46;;;;;;;4.68;1.35;;;;;;;;;;5045287;22;20081;-81
2023/10/15 09:17:14;;;;;;;5.82;1.30;;;;;;;;;;5024204;28;20124;-81
2023/10/15 09:19:46;;;;;;;4.90;1.20;;;;;;;;;;5014883;28;20100;-81
2023/10/15 09:22:14;;;;;;;4.07;1.40;;;;;;;;;;5012869;28;20034;-82
2023/10/15 09:24:45;;;;;;;5.00;1.20;;;;;;;;;;5021808;28;20038;-81
2023/10/15 09:27:13;;;;;;;2.65;1.02;;;;;;;;;;5025200;28;20033;-81
2023/10/15 09:29:40;;;;;;;3.10;1.00;;;;;;;;;;5019372;28;20045;-81
2023/10/15 09:32:06;;;;;;;4.75;1.10;;;;;;;;;;5015138;28;20045;-83
2023/10/15 09:34:36;;;;;;;5.88;0.95;;;;;;;;;;5001706;28;20037;-81
2023/10/15 09:37:05;;;;;;;2.55;0.80;;;;;;;;;;5026676;28;20030;-82
2023/10/15 09:39:31;;;;;;;4.35;1.38;;;;;;;;;;5023082;28;20103;-82
2023/10/15 09:41:57;;;;;;;5.75;1.10;;;;;;;;;;5016741;28;20056;-82
2023/10/15 09:44:24;;;;;;;3.10;1.10;;;;;;;;;;5018061;28;20048;-82
2023/10/15 09:46:50;;;;;;;2.95;0.85;;;;;;;;;;5028912;28;20517;-84
2023/10/15 09:49:18;;;;;;;3.28;1.10;;;;;;;;;;5023549;28;20034;-84
2023/10/15 09:51:47;;;;;;;3.60;0.90;;;;;;;;;;5016575;28;20038;-83
2023/10/15 09:54:14;;;;;;;3.55;1.00;;;;;;;;;;5015309;28;20041;-84
2023/10/15 09:56:45;;;;;;;2.17;0.90;;;;;;;;;;5029673;28;20033;-85
2023/10/15 09:59:11;;;;;;;3.58;1.20;;;;;;;;;;5019361;28;20042;-83
2023/10/15 10:01:39;;;;;;;3.10;1.10;;;;;;;;;;5022087;28;20120;-84
2023/10/15 10:04:23;;;;;;;4.50;1.30;;;;;;;;;;5013700;28;20034;-80
2023/10/15 10:07:05;;;;;;;3.45;1.02;;;;;;;;;;5026732;28;20537;-82
2023/10/15 10:09:43;;;;;;;2.80;0.70;;;;;;;;;;5025199;28;20052;-81
2023/10/15 10:12:35;;;;;;;2.85;1.08;;;;;;;;;;5013625;28;20037;-81
2023/10/15 10:15:24;;;;;;;3.55;1.00;;;;;;;;;;5014764;28;20061;-80
2023/10/15 10:17:50;;;;;;;3.08;1.30;;;;;;;;;;5029855;28;20036;-82
2023/10/15 10:20:19;;;;;;;4.28;1.05;;;;;;;;;;5023363;28;20022;-80
2023/10/15 10:22:58;;;;;;;2.33;0.98;;;;;;;;;;5019294;28;20037;-84
2023/10/15 10:25:42;;;;;;;2.92;1.10;;;;;;;;;;5018873;28;20049;-82
2023/10/15 10:28:10;;;;;;;4.32;1.35;;;;;;;;;;5027272;28;20065;-83
2023/10/15 10:30:38;;;;;;;3.20;1.10;;;;;;;;;;5023395;28;20083;-84
2023/10/15 10:33:04;;;;;;;5.40;1.92;;;;;;;;;;5019912;28;20111;-82
2023/10/15 10:35:47;;;;;;;3.03;1.30;;;;;;;;;;5014814;28;20427;-82
2023/10/15 10:38:18;;;;;;;4.10;1.10;;;;;;;;;;4997893;28;20045;-83
2023/10/15 10:40:45;;;;;;;3.13;1.00;;;;;;;;;;5018715;28;20514;-83
2023/10/15 10:43:16;;;;;;;2.65;0.88;;;;;;;;;;5015588;28;20495;-83
2023/10/15 10:45:54;;;;;;;0.95;0.55;;;;;;;;;;5000904;28;20488;-83
2023/10/15 10:48:27;;;;;;;1.83;0.80;;;;;;;;;;5018337;28;20503;-84
2023/10/15 10:51:07;;;;;;;0.93;0.50;;;;;;;;;;5012762;28;20049;-82
2023/10/15 10:53:37;;;;;;;3.88;0.70;;;;;;;;;;5019244;28;20069;-82
2023/10/15 10:56:04;;;;;;;1.00;0.43;;;;;;;;;;5006497;28;20029;-82
2023/10/15 10:58:29;;;;;;;1.83;0.60;;;;;;;;;;4998803;28;20506;-82
2023/10/15 11:00:56;;;;;;;4.50;0.70;;;;;;;;;;5007762;28;20037;-83
2023/10/15 11:03:26;;;;;;;1.77;0.50;;;;;;;;;;5012998;28;20049;-85
2023/10/15 11:05:58;;;;;;;2.53;0.63;;;;;;;;;;5015621;28;20022;-85
2023/10/15 11:08:23;;;;;;;1.20;0.60;;;;;;;;;;5014432;28;20096;-85
2023/10/15 11:10:49;;;;;;;0.95;0.50;;;;;;;;;;5025619;28;20037;-85
2023/10/15 11:13:15;;;;;;;3.10;0.73;;;;;;;;;;5023075;28;20037;-84
2023/10/15 11:15:45;;;;;;;0.47;0.40;;;;;;;;;;5015070;28;20030;-85
2023/10/15 11:18:11;;;;;;;1.95;0.98;;;;;;;;;;5015249;28;20125;-87
2023/10/15 11:20:36;;;;;;;1.48;0.60;;;;;;;;;;5024032;28;20076;-85
2023/10/15 11:23:06;;;;;;;0.80;0.63;;;;;;;;;;5021642;28;20500;-85
2023/10/15 11:25:35;;;;;;;3.35;1.80;;;;;;;;;;5018602;28;20041;-85
2023/10/15 11:28:05;;;;;;;3.03;1.25;;;;;;;;;;5007973;28;20598;-86
2023/10/15 11:30:32;;;;;;;1.70;0.93;;;;;;;;;;5022838;28;20041;-86
2023/10/15 11:32:59;;;;;;;2.20;0.90;;;;;;;;;;5004779;28;20037;-86
2023/10/15 11:35:30;;;;;;;2.38;0.75;;;;;;;;;;4999844;28;20034;-85
2023/10/15 11:37:56;;;;;;;1.45;0.80;;;;;;;;;;5013578;28;20042;-85
2023/10/15 11:40:23;;;;;;;2.67;0.73;;;;;;;;;;5020990;28;20045;-86
2023/10/15 11:42:54;;;;;;;1.27;0.60;;;;;;;;;;5018404;28;20030;-85
2023/10/15 11:45:30;;;;;;;1.45;0.60;;;;;;;;;;5020230;28;20037;-85
2023/10/15 11:47:56;;;;;;;1.38;0.60;;;;;;;;;;5000712;28;20095;-87
2023/10/15 11:50:23;;;;;;;2.60;0.70;;;;;;;;;;5023728;28;20040;-85
2023/10/15 11:52:50;;;;;;;3.33;0.80;;;;;;;;;;5025335;28;20053;-86
2023/10/15 11:55:26;;;;;;;1.50;0.77;;;;;;;;;;5027224;28;20045;-87
2023/10/15 11:57:51;;;;;;;0.88;0.70;;;;;;;;;;5020211;28;20056;-85
2023/10/15 12:00:33;;;;;;;2.95;1.00;;;;;;;;;;5016296;28;20029;-85
2023/10/15 12:03:00;;;;;;;1.40;0.70;;;;;;;;;;5025076;28;20037;-86
2023/10/15 12:05:31;;;;;;;1.52;0.68;;;;;;;;;;5026914;28;20105;-85
2023/10/15 12:08:03;;;;;;;1.63;0.63;;;;;;;;;;5022720;28;20041;-85
2023/10/15 12:10:29;;;;;;;5.15;0.80;;;;;;;;;;5028895;28;20038;-85
2023/10/15 12:12:54;;;;;;;2.17;0.80;;;;;;;;;;5032442;28;20392;-85
2023/10/15 12:15:20;;;;;;;3.03;0.85;;;;;;;;;;5024535;28;20057;-86
2023/10/15 12:17:45;;;;;;;2.65;1.00;;;;;;;;;;5021703;28;20508;-85
2023/10/15 12:20:12;;;;;;;1.92;0.90;;;;;;;;;;5010789;28;20044;-84
2023/10/15 12:22:38;;;;;;;3.75;1.00;;;;;;;;;;5015564;28;20038;-84
2023/10/15 12:25:04;;;;;;;3.58;0.90;;;;;;;;;;5008670;28;20457;-84
2023/10/15 12:27:30;;;;;;;1.35;0.93;;;;;;;;;;5003791;28;20503;-84
2023/10/15 12:29:56;;;;;;;6.15;1.10;;;;;;;;;;5005128;28;20507;-84
2023/10/15 12:32:22;;;;;;;2.30;1.38;;;;;;;;;;5018719;28;20025;-84
2023/10/15 12:34:47;;;;;;;3.42;1.10;;;;;;;;;;5030616;28;20041;-84
2023/10/15 12:37:13;;;;;;;2.83;1.10;;;;;;;;;;5025550;28;20028;-85
2023/10/15 12:39:44;;;;;;;3.85;1.00;;;;;;;;;;5021629;28;20516;-87
2023/10/15 12:42:11;;;;;;;7.97;2.33;;;;;;;;;;5016539;28;20096;-85
2023/10/15 12:44:40;;;;;;;9.85;3.63;;;;;;;;;;5031364;28;20120;-85
2023/10/15 12:47:09;;;;;;;3.03;1.38;;;;;;;;;;5024666;28;20402;-84
2023/10/15 12:49:35;;;;;;;3.88;1.83;;;;;;;;;;5021443;28;20054;-84
2023/10/15 12:52:03;;;;;;;2.65;1.10;;;;;;;;;;5012196;28;20493;-86
2023/10/15 12:54:29;;;;;;;1.98;0.90;;;;;;;;;;5026327;28;20029;-86
2023/10/15 12:56:55;;;;;;;1.80;0.60;;;;;;;;;;5021416;28;20536;-87
2023/10/15 12:59:22;;;;;;;1.27;0.60;;;;;;;;;;5021301;28;20551;-88
2023/10/15 13:01:48;;;;;;;1.42;0.90;;;;;;;;;;5015917;28;20124;-87
2023/10/15 13:04:13;;;;;;;3.10;0.80;;;;;;;;;;5027035;28;20083;-85
2023/10/15 13:06:39;;;;;;;2.15;0.80;;;;;;;;;;5009495;28;20030;-85
2023/10/15 13:09:08;;;;;;;1.30;0.68;;;;;;;;;;5020896;28;20037;-85
2023/10/15 13:11:37;;;;;;;2.78;1.00;;;;;;;;;;5026343;28;20030;-85
2023/10/15 13:14:04;;;;;;;1.63;0.90;;;;;;;;;;5022443;28;20037;-85
2023/10/15 13:16:30;;;;;;;1.70;0.80;;;;;;;;;;5028926;28;20040;-86
2023/10/15 13:18:56;;;;;;;1.75;0.80;;;;;;;;;;5024291;28;20033;-86
2023/10/15 13:21:22;;;;;;;0.95;0.70;;;;;;;;;;5018994;28;20025;-86
2023/10/15 13:23:48;;;;;;;2.63;0.80;;;;;;;;;;5018589;28;20059;-84
2023/10/15 13:26:13;;;;;;;1.35;0.88;;;;;;;;;;5029185;28;20470;-86
2023/10/15 13:28:39;;;;;;;0.65;0.60;;;;;;;;;;5018992;28;20029;-85
2023/10/15 13:31:06;;;;;;;1.42;0.60;;;;;;;;;;5020668;28;20077;-85
2023/10/15 13:33:33;;;;;;;3.58;0.70;;;;;;;;;;5016815;28;20059;-85
2023/10/15 13:35:59;;;;;;;1.45;0.80;;;;;;;;;;5027318;28;20036;-85
2023/10/15 13:38:25;;;;;;;2.50;0.60;;;;;;;;;;5009375;28;20041;-87
2023/10/15 13:40:51;;;;;;;0.85;0.60;;;;;;;;;;5021759;28;20034;-81
2023/10/15 13:43:16;;;;;;;3.20;0.85;;;;;;;;;;5019016;28;20026;-84
2023/10/15 13:45:42;;;;;;;0.98;0.70;;;;;;;;;;5024775;28;20451;-84
2023/10/15 13:48:10;;;;;;;1.52;0.70;;;;;;;;;;5029081;28;20450;-83
2023/10/15 13:50:36;;;;;;;1.58;0.80;;;;;;;;;;5022125;28;20061;-85
2023/10/15 13:53:03;;;;;;;2.33;0.85;;;;;;;;;;5016442;28;20443;-84
2023/10/15 13:55:29;;;;;;;0.80;0.60;;;;;;;;;;5018405;28;20036;-84
2023/10/15 13:57:55;;;;;;;1.58;0.85;;;;;;;;;;5031176;28;20041;-85
2023/10/15 14:00:21;;;;;;;2.30;1.00;;;;;;;;;;5023844;28;20037;-84
2023/10/15 14:02:48;;;;;;;3.10;1.90;;;;;;;;;;5018527;28;20034;-84
2023/10/15 14:05:18;;;;;;;3.67;1.80;;;;;;;;;;5014287;28;20033;-84
2023/10/15 14:07:49;;;;;;;2.40;1.30;;;;;;;;;;5030571;28;20033;-85
2023/10/15 14:10:18;;;;;;;3.33;1.40;;;;;;;;;;5036323;28;20033;-84
2023/10/15 14:12:44;;;;;;;5.05;2.70;;;;;;;;;;5020488;28;20124;-85
2023/10/15 14:15:19;;;;;;;7.00;3.58;;;;;;;;;;4999251;28;20033;-83
2023/10/15 14:17:45;;;;;;;4.80;2.15;;;;;;;;;;5026820;28;20068;-84
2023/10/15 14:20:15;;;;;;;6.85;2.63;;;;;;;;;;5026099;28;20547;-84
2023/10/15 14:22:42;;;;;;;6.05;2.90;;;;;;;;;;5017834;28;20156;-84
2023/10/15 14:25:08;;;;;;;3.10;1.60;;;;;;;;;;5017702;28;20053;-84
2023/10/15 14:27:34;;;;;;;4.00;1.98;;;;;;;;;;5024846;28;20686;-85
2023/10/15 14:30:00;;;;;;;4.70;2.28;;;;;;;;;;5026275;28;20260;-85
2023/10/15 14:32:26;;;;;;;6.75;2.60;;;;;;;;;;5027908;28;20044;-85
2023/10/15 14:34:58;;;;;;;3.28;1.98;;;;;;;;;;5025435;28;20038;-86
2023/10/15 14:37:25;;;;;;;1.77;0.95;;;;;;;;;;5017348;28;20054;-85
2023/10/15 14:39:51;;;;;;;3.05;1.10;;;;;;;;;;5031533;28;20065;-86
2023/10/15 14:42:16;;;;;;;2.53;1.10;;;;;;;;;;5006542;28;20030;-85
2023/10/15 14:44:41;;;;;;;2.22;0.90;;;;;;;;;;5000185;28;20045;-84
2023/10/15 14:47:08;;;;;;;3.40;0.95;;;;;;;;;;5010701;28;20125;-82
2023/10/15 14:49:33;;;;;;;3.75;0.90;;;;;;;;;;5041607;28;20049;-85
2023/10/15 14:51:59;;;;;;;1.15;0.60;;;;;;;;;;5025535;28;20025;-87
2023/10/15 14:54:24;;;;;;;2.28;1.00;;;;;;;;;;5019117;28;20048;-85
2023/10/15 14:56:51;;;;;;;1.50;0.80;;;;;;;;;;5017038;28;20058;-86
2023/10/15 14:59:17;;;;;;;2.58;1.23;;;;;;;;;;5027693;28;20051;-85
2023/10/15 15:01:43;;;;;;;2.63;0.77;;;;;;;;;;5025896;28;20740;-84
2023/10/15 15:04:16;;;;;;;1.08;0.70;;;;;;;;;;5005297;28;20046;-85